createdAt,value
2022-09-13T00:03:01.613Z,3.10
2022-09-13T00:08:08.555Z,4.37
2022-09-13T00:13:15.887Z,3.37
2022-09-13T00:18:21.290Z,3.00
2022-09-13T00:23:26.738Z,3.07
2022-09-13T00:28:32.208Z,3.00
2022-09-13T00:33:38.128Z,3.20
2022-09-13T00:38:44.690Z,2.80
2022-09-13T00:43:59.103Z,3.90
2022-09-13T00:49:16.699Z,2.67
2022-09-13T00:54:25.132Z,2.80
2022-09-13T00:59:33.691Z,2.77
2022-09-13T01:04:40.252Z,4.67
2022-09-13T01:09:49.653Z,2.40
2022-09-13T01:14:56.546Z,2.57
2022-09-13T01:20:04.124Z,3.80
2022-09-13T01:25:15.249Z,3.00
2022-09-13T01:30:23.796Z,2.77
2022-09-13T01:35:48.559Z,3.03
2022-09-13T01:41:04.949Z,2.40
2022-09-13T01:46:15.916Z,2.50
2022-09-13T01:51:33.710Z,2.60
2022-09-13T01:56:45.470Z,2.93
2022-09-13T02:01:59.766Z,2.63
2022-09-13T02:07:08.366Z,3.03
2022-09-13T02:12:19.782Z,2.13
2022-09-13T02:17:28.226Z,2.97
2022-09-13T02:22:36.958Z,2.83
2022-09-13T02:27:45.135Z,3.13
2022-09-13T02:33:02.550Z,3.37
2022-09-13T02:38:11.063Z,3.93
2022-09-13T02:43:22.107Z,3.13
2022-09-13T02:48:37.279Z,3.33
2022-09-13T02:53:47.296Z,3.23
2022-09-13T02:59:12.318Z,2.87
2022-09-13T03:04:17.882Z,4.33
2022-09-13T03:09:24.011Z,3.10
2022-09-13T03:14:38.468Z,3.10
2022-09-13T03:20:12.283Z,2.83
2022-09-13T03:25:44.917Z,2.90
2022-09-13T03:30:56.492Z,2.87
2022-09-13T03:36:25.814Z,3.30
2022-09-13T03:41:37.132Z,5.30
2022-09-13T03:46:50.531Z,3.13
2022-09-13T03:51:58.135Z,4.53
2022-09-13T03:57:19.857Z,3.50
2022-09-13T04:02:26.867Z,3.13
2022-09-13T04:07:32.421Z,3.00
2022-09-13T04:12:38.745Z,2.60
2022-09-13T04:17:44.147Z,2.80
2022-09-13T04:22:54.572Z,3.10
2022-09-13T04:28:00.971Z,4.03
2022-09-13T04:33:06.367Z,2.60
2022-09-13T04:38:11.962Z,3.10
2022-09-13T04:43:17.424Z,2.83
2022-09-13T04:48:23.006Z,2.80
2022-09-13T04:53:29.079Z,2.97
2022-09-13T04:58:34.952Z,3.07
2022-09-13T05:03:40.714Z,2.90
2022-09-13T05:08:48.415Z,2.80
2022-09-13T05:13:56.207Z,2.80
2022-09-13T05:19:02.141Z,3.27
2022-09-13T05:24:07.676Z,2.90
2022-09-13T05:29:13.091Z,2.80
2022-09-13T05:34:19.674Z,2.70
2022-09-13T05:39:48.404Z,3.13
2022-09-13T05:44:32.365Z,2.80
2022-09-13T05:49:51.103Z,2.93
2022-09-13T05:54:45.096Z,2.80
2022-09-13T05:59:50.489Z,2.53
2022-09-13T06:04:56.337Z,2.90
2022-09-13T06:10:01.728Z,2.70
2022-09-13T06:15:07.594Z,2.90
2022-09-13T06:20:12.979Z,2.70
2022-09-13T06:25:18.806Z,2.80
2022-09-13T06:30:24.261Z,2.60
2022-09-13T06:35:29.874Z,3.00
2022-09-13T06:40:35.374Z,2.53
2022-09-13T06:45:42.389Z,3.23
2022-09-13T06:50:47.929Z,2.57
2022-09-13T06:56:01.956Z,2.77
2022-09-13T07:01:13.492Z,2.73
2022-09-13T07:06:22.606Z,3.00
2022-09-13T07:11:34.155Z,3.40
2022-09-13T07:16:40.683Z,2.93
2022-09-13T07:21:46.343Z,3.60
2022-09-13T07:26:52.348Z,3.40
2022-09-13T07:31:58.739Z,3.47
2022-09-13T07:37:05.068Z,4.43
2022-09-13T07:42:12.024Z,3.70
2022-09-13T07:47:17.435Z,3.23
2022-09-13T07:52:22.846Z,4.30
2022-09-13T07:57:29.209Z,3.87
2022-09-13T08:02:36.374Z,3.87
2022-09-13T08:07:42.285Z,3.67
2022-09-13T08:12:47.679Z,3.87
2022-09-13T08:17:55.088Z,3.97
2022-09-13T08:23:00.560Z,4.30
2022-09-13T08:28:18.000Z,4.57
2022-09-13T08:33:23.400Z,4.13
2022-09-13T08:38:29.703Z,4.77
2022-09-13T08:43:41.310Z,5.50
2022-09-13T08:48:49.785Z,4.90
2022-09-13T08:53:56.117Z,4.87
2022-09-13T08:59:30.236Z,5.37
2022-09-13T09:04:53.810Z,4.33
2022-09-13T09:10:08.390Z,4.97
2022-09-13T09:15:22.861Z,5.33
2022-09-13T09:20:49.496Z,5.37
2022-09-13T09:25:58.083Z,4.77
2022-09-13T09:31:15.913Z,4.63
2022-09-13T09:36:42.951Z,4.97
2022-09-13T09:41:48.889Z,6.07
2022-09-13T09:47:06.420Z,4.90
2022-09-13T09:52:14.818Z,4.93
2022-09-13T09:57:20.773Z,5.63
2022-09-13T10:02:26.183Z,4.93
2022-09-13T10:07:35.818Z,5.13
2022-09-13T10:12:41.867Z,5.80
2022-09-13T10:18:13.444Z,4.90
2022-09-13T10:23:19.360Z,5.30
2022-09-13T10:28:26.674Z,6.10
2022-09-13T10:33:41.228Z,5.30
2022-09-13T10:39:09.431Z,6.20
2022-09-13T10:44:43.572Z,5.80
2022-09-13T10:49:54.639Z,6.60
2022-09-13T10:55:23.229Z,6.13
2022-09-13T11:00:51.439Z,6.17
2022-09-13T11:06:24.615Z,6.57
2022-09-13T11:11:48.399Z,6.77
2022-09-13T11:17:26.058Z,6.03
2022-09-13T11:22:48.872Z,5.67
2022-09-13T11:28:03.354Z,5.37
2022-09-13T11:33:42.024Z,6.20
2022-09-13T11:39:17.898Z,5.57
2022-09-13T11:44:48.801Z,6.33
2022-09-13T11:49:58.902Z,5.50
2022-09-13T11:55:27.052Z,5.93
2022-09-13T12:00:40.054Z,5.57
2022-09-13T12:06:13.181Z,5.37
2022-09-13T12:11:24.821Z,5.77
2022-09-13T12:16:45.427Z,5.40
2022-09-13T12:21:53.139Z,6.20
2022-09-13T12:27:10.833Z,5.57
2022-09-13T12:32:18.571Z,5.20
2022-09-13T12:37:35.992Z,5.50
2022-09-13T12:43:00.838Z,5.97
2022-09-13T12:48:24.509Z,4.80
2022-09-13T12:53:54.873Z,3.77
2022-09-13T12:59:06.603Z,3.50
2022-09-13T13:04:20.538Z,3.63
2022-09-13T13:09:44.128Z,3.40
2022-09-13T13:14:52.498Z,3.47
2022-09-13T13:19:57.891Z,3.30
2022-09-13T13:25:28.916Z,3.37
2022-09-13T13:30:43.686Z,3.87
2022-09-13T13:35:49.907Z,3.93
2022-09-13T13:40:58.626Z,2.60
2022-09-13T13:46:16.435Z,2.60
2022-09-13T13:51:24.645Z,2.67
2022-09-13T13:56:42.228Z,3.53
2022-09-13T14:01:50.740Z,3.33
2022-09-13T14:07:18.932Z,3.33
2022-09-13T14:12:21.971Z,3.90
2022-09-13T14:17:42.494Z,2.80
2022-09-13T14:22:48.591Z,4.87
2022-09-13T14:27:57.092Z,2.20
2022-09-13T14:33:04.962Z,2.80
2022-09-13T14:38:22.148Z,3.97
2022-09-13T14:43:30.962Z,2.60
2022-09-13T14:48:51.845Z,2.77
2022-09-13T14:54:00.455Z,2.77
2022-09-13T14:59:08.723Z,4.63
2022-09-13T15:04:14.446Z,3.30
2022-09-13T15:09:27.822Z,3.20
2022-09-13T15:14:38.276Z,3.07
2022-09-13T15:19:47.160Z,4.67
2022-09-13T15:24:58.497Z,4.17
2022-09-13T15:30:15.990Z,2.93
2022-09-13T15:35:27.252Z,3.50
2022-09-13T15:40:35.720Z,3.47
2022-09-13T15:45:41.520Z,3.83
2022-09-13T15:50:49.983Z,4.60
2022-09-13T15:55:56.482Z,3.30
2022-09-13T16:01:02.533Z,3.53
2022-09-13T16:06:09.394Z,3.40
2022-09-13T16:11:15.313Z,3.90
2022-09-13T16:16:20.871Z,4.30
2022-09-13T16:21:26.396Z,6.23
2022-09-13T16:26:33.935Z,4.50
2022-09-13T16:31:39.507Z,8.03
2022-09-13T16:36:44.986Z,5.80
2022-09-13T16:41:50.653Z,3.43
2022-09-13T16:46:56.078Z,6.20
2022-09-13T16:52:01.820Z,5.07
2022-09-13T16:57:09.920Z,3.87
2022-09-13T17:02:15.817Z,4.07
2022-09-13T17:07:21.696Z,3.20
2022-09-13T17:12:28.638Z,6.07
2022-09-13T17:17:36.768Z,5.30
2022-09-13T17:22:42.529Z,4.17
2022-09-13T17:27:48.609Z,3.07
2022-09-13T17:32:54.792Z,3.37
2022-09-13T17:38:02.490Z,3.93
2022-09-13T17:43:09.808Z,3.33
2022-09-13T17:48:15.289Z,5.33
2022-09-13T17:53:20.698Z,7.07
2022-09-13T17:58:27.833Z,7.87
2022-09-13T18:03:34.566Z,4.40
2022-09-13T18:08:40.970Z,5.90
2022-09-13T18:13:48.072Z,6.47
2022-09-13T18:18:54.977Z,6.40
2022-09-13T18:24:05.151Z,5.90
2022-09-13T18:29:15.587Z,4.93
2022-09-13T18:34:27.529Z,3.63
2022-09-13T18:39:32.625Z,3.20
2022-09-13T18:44:39.221Z,3.60
2022-09-13T18:49:45.601Z,4.43
2022-09-13T18:54:51.381Z,3.50
2022-09-13T18:59:59.196Z,5.93
2022-09-13T19:05:07.110Z,5.67
2022-09-13T19:10:16.979Z,3.87
2022-09-13T19:15:23.953Z,4.53
2022-09-13T19:20:31.416Z,2.30
2022-09-13T19:25:37.414Z,2.37
2022-09-13T19:30:43.893Z,3.83
2022-09-13T19:35:50.537Z,4.40
2022-09-13T19:41:02.514Z,4.47
2022-09-13T19:46:11.900Z,2.67
2022-09-13T19:51:27.788Z,5.97
2022-09-13T19:56:37.372Z,7.33
2022-09-13T20:01:46.341Z,3.03
2022-09-13T20:06:53.093Z,4.60
2022-09-13T20:12:01.311Z,4.63
2022-09-13T20:17:08.719Z,2.43
2022-09-13T20:22:16.949Z,3.10
2022-09-13T20:27:22.981Z,4.60
2022-09-13T20:32:28.836Z,3.97
2022-09-13T20:37:34.645Z,4.13
2022-09-13T20:42:40.796Z,3.07
2022-09-13T20:47:46.957Z,3.27
2022-09-13T20:52:53.453Z,2.97
2022-09-13T20:58:00.557Z,4.00
2022-09-13T21:03:05.964Z,3.17
2022-09-13T21:08:36.373Z,4.43
2022-09-13T21:13:45.103Z,5.60
2022-09-13T21:18:51.148Z,2.90
2022-09-13T21:23:57.245Z,4.27
2022-09-13T21:29:03.038Z,4.77
2022-09-13T21:34:11.376Z,2.83
2022-09-13T21:39:18.777Z,2.40
2022-09-13T21:44:24.256Z,1.97
2022-09-13T21:49:29.727Z,3.07
2022-09-13T21:54:35.651Z,2.57
2022-09-13T21:59:41.345Z,3.23
2022-09-13T22:04:46.959Z,2.33
2022-09-13T22:09:52.503Z,3.17
2022-09-13T22:14:58.205Z,2.20
2022-09-13T22:20:04.690Z,3.30
2022-09-13T22:25:10.262Z,4.10
2022-09-13T22:30:15.889Z,1.93
2022-09-13T22:35:21.264Z,4.20
2022-09-13T22:40:27.537Z,3.87
2022-09-13T22:45:33.358Z,4.03
2022-09-13T22:50:38.859Z,3.40
2022-09-13T22:55:44.240Z,4.13
2022-09-13T23:00:49.805Z,2.70
2022-09-13T23:05:55.306Z,3.97
2022-09-13T23:11:12.276Z,4.67
2022-09-13T23:16:26.414Z,4.90
2022-09-13T23:21:35.458Z,3.90
2022-09-13T23:26:41.327Z,3.00
2022-09-13T23:31:47.756Z,4.37
2022-09-13T23:36:53.970Z,3.03
2022-09-13T23:41:59.639Z,5.80
2022-09-13T23:47:05.274Z,2.37
2022-09-13T23:52:10.655Z,2.77
2022-09-13T23:57:17.845Z,2.80
